New Egypt, NJ

11:53 PM EDT on April 26, 2017 (GMT -0400)
In the Village of | | Change Station

Elev 85 ft 40.07 °N, 74.53 °W | Updated 7 seconds ago

Overcast
Overcast
60.6 °F
Feels Like 60.6 °F
N
1.1
Wind Variable Wind from South
Gusts 2.5 mph

Today
High -- | Low -- °F
--% Chance of Precip.
Yesterday
High -- | Low -- °F
Precip. -- in
Pressure 29.83 in
Visibility 10.0 miles
Clouds Overcast 1400 ft
Dew Point 45 °F
Humidity 57%
Rainfall 0.00 in
Snow Depth Not available.
6:04 AM 7:48 PM
New Moon, 1% visible
SPECI KWRI 270328Z AUTO 12004KT 10SM OVC014 16/14 A2983 RMK AO2 SLP101 $
Pressure 29.83 in
Visibility 10.0 miles
Clouds Overcast 1400 ft
Dew Point 45 °F
Humidity 57%
Rainfall 0.00 in
Snow Depth Not available.
6:04 AM 7:48 PM
New Moon, 1% visible
SPECI KWRI 270328Z AUTO 12004KT 10SM OVC014 16/14 A2983 RMK AO2 SLP101 $

Get Severe Weather Alerts

Thanks for signing up!

Be on the lookout for a verification email in your inbox.

You'll start receiving the daily forecast at 8 AM.

×

10-Day Weather Forecast

Almanac

Astronomy

Apr. 26, 2017 Rise Set
Actual Time
Civil Twilight
Nautical Twilight
Astronomical Twilight
Moon
Length of Visible Light
Length of Day
Tomorrow will be .
, % of the Moon is Illuminated

Today's Extremes

State Highs State Lows

Community

WunderPhotos

WunderBlog® & News

Nearby

Air Quality

  Air Quality AQ Index Pollutant
Not available.

Snow Depth

Station Depth Elevation

Earthquake Activity

City Distance Mag. Time & Date
Minimum magnitude displayed is 2.5.

Coastal Water Temperatures

Place Temperature

Stations

Nearby Weather Stations

Station Location Temp. Windchill Dew Point Humidity Wind Precip. Elev Updated Type
                   

Watches & Warnings

There are currently no watches in effect.